Time;durP1;ratioP1;P1;durP2;ratioP2;P2;SDS_P1;SDS_P2;PMS_P1;PMS_P2;Temp;Humidity;BMP_temperature;BMP_pressure;BME280_temperature;BME280_humidity;BME280_pressure;Samples;Min_cycle;Max_cycle;Signal;HPM_P1;HPM_P2
2024/02/05 03:34:36;;;;;;;2.90;0.68;;;;;;;11.17;100.00;100195.41;6198537;22;20077;-89
2024/02/05 03:37:04;;;;;;;2.05;1.08;;;;;;;11.23;100.00;100177.75;6210894;23;20012;-88
2024/02/05 03:39:35;;;;;;;0.98;0.60;;;;;;;11.19;100.00;100190.44;6213240;23;20453;-88
2024/02/05 03:42:01;;;;;;;2.20;0.55;;;;;;;11.30;100.00;100181.31;6195877;23;20008;-88
2024/02/05 03:44:26;;;;;;;0.30;0.30;;;;;;;11.22;100.00;100189.69;6209027;23;20011;-88
2024/02/05 03:46:52;;;;;;;2.55;0.65;;;;;;;11.17;100.00;100198.13;6211762;23;20024;-89
2024/02/05 03:49:18;;;;;;;3.90;0.82;;;;;;;11.13;100.00;100200.75;6202272;23;20016;-88
2024/02/05 03:51:50;;;;;;;2.65;1.17;;;;;;;11.24;100.00;100198.97;6205167;23;20028;-89
2024/02/05 03:54:31;;;;;;;1.15;0.82;;;;;;;11.38;100.00;100192.94;6215728;23;20009;-92
2024/02/05 03:57:09;;;;;;;2.20;0.60;;;;;;;11.25;100.00;100184.31;6183511;23;20439;-90
2024/02/05 03:59:38;;;;;;;2.42;1.50;;;;;;;11.13;100.00;100189.22;6204881;23;20017;-88
2024/02/05 04:02:03;;;;;;;8.88;2.22;;;;;;;11.20;100.00;100195.44;6207390;23;20521;-90
2024/02/05 04:04:29;;;;;;;2.38;1.42;;;;;;;11.27;100.00;100195.50;6206583;23;20461;-88
2024/02/05 04:06:54;;;;;;;2.55;1.35;;;;;;;11.08;100.00;100184.13;6206635;23;20042;-88
2024/02/05 04:09:20;;;;;;;4.78;1.30;;;;;;;11.09;100.00;100191.09;6195119;23;20012;-89
2024/02/05 04:11:48;;;;;;;1.27;1.17;;;;;;;11.12;100.00;100196.50;6180030;23;20012;-88
2024/02/05 04:14:17;;;;;;;2.85;1.20;;;;;;;10.77;100.00;100198.81;6181841;23;20076;-88
2024/02/05 04:16:48;;;;;;;4.80;2.00;;;;;;;10.94;100.00;100211.69;6179956;23;20019;-88
2024/02/05 04:19:14;;;;;;;6.05;1.95;;;;;;;10.74;100.00;100200.31;6181945;23;20039;-90
2024/02/05 04:21:39;;;;;;;7.78;2.53;;;;;;;10.88;100.00;100216.66;6181909;23;20001;-89
2024/02/05 04:24:23;;;;;;;5.55;1.60;;;;;;;10.94;100.00;100209.00;6159285;23;20283;-89
2024/02/05 04:26:55;;;;;;;2.95;1.88;;;;;;;10.86;100.00;100199.28;6179879;23;20021;-92
2024/02/05 04:29:24;;;;;;;6.70;2.00;;;;;;;10.86;100.00;100207.38;6154377;23;20012;-89
2024/02/05 04:31:50;;;;;;;6.25;2.45;;;;;;;10.89;100.00;100212.81;6180025;23;20063;-89
2024/02/05 04:34:16;;;;;;;7.18;1.83;;;;;;;11.00;100.00;100207.53;6181551;23;20067;-90
2024/02/05 04:36:42;;;;;;;10.95;2.15;;;;;;;10.92;100.00;100200.53;6182056;23;20008;-88
2024/02/05 04:39:39;;;;;;;5.35;2.80;;;;;;;10.90;100.00;100217.06;6206544;23;20008;-89
2024/02/05 04:42:12;;;;;;;3.92;1.52;;;;;;;11.07;100.00;100217.63;6208681;23;20014;-89
2024/02/05 04:44:37;;;;;;;5.18;2.13;;;;;;;10.88;100.00;100205.88;6211009;23;20024;-88
2024/02/05 04:47:03;;;;;;;6.22;1.55;;;;;;;10.92;100.00;100199.75;6207816;23;20009;-88
2024/02/05 04:49:33;;;;;;;1.58;1.45;;;;;;;10.62;100.00;100192.50;6208745;23;20018;-88
2024/02/05 04:52:00;;;;;;;4.63;1.45;;;;;;;10.71;100.00;100186.81;6209298;23;20027;-88
2024/02/05 04:54:29;;;;;;;3.53;1.80;;;;;;;10.64;100.00;100192.13;6185346;23;20001;-88
2024/02/05 04:56:57;;;;;;;3.45;1.88;;;;;;;10.76;100.00;100184.56;6209364;23;20024;-89
2024/02/05 04:59:23;;;;;;;7.60;2.13;;;;;;;10.65;100.00;100193.66;6183519;23;20012;-88
2024/02/05 05:01:51;;;;;;;5.80;2.20;;;;;;;10.63;100.00;100185.94;6209127;23;20371;-88
2024/02/05 05:04:25;;;;;;;5.32;2.17;;;;;;;10.68;100.00;100185.63;6209668;23;20087;-88
2024/02/05 05:06:53;;;;;;;2.50;1.58;;;;;;;10.51;100.00;100185.41;6206751;23;20020;-92
2024/02/05 05:09:20;;;;;;;6.78;2.38;;;;;;;10.65;100.00;100183.66;6203517;23;20027;-89
2024/02/05 05:12:05;;;;;;;5.53;2.20;;;;;;;10.60;100.00;100183.22;6206229;23;20094;-89
2024/02/05 05:14:30;;;;;;;4.13;1.83;;;;;;;10.54;100.00;100182.75;6208573;23;20079;-89
2024/02/05 05:16:56;;;;;;;9.50;2.63;;;;;;;10.59;100.00;100190.50;6185536;23;20036;-88
2024/02/05 05:19:38;;;;;;;11.25;1.83;;;;;;;10.67;100.00;100192.16;6206740;23;20084;-88
2024/02/05 05:22:06;;;;;;;10.25;2.25;;;;;;;10.81;100.00;100195.03;6194489;23;20016;-88
2024/02/05 05:24:32;;;;;;;6.70;2.65;;;;;;;10.75;100.00;100193.00;6182391;23;20087;-88
2024/02/05 05:27:05;;;;;;;15.63;2.72;;;;;;;10.73;100.00;100192.59;6204560;23;20043;-88
2024/02/05 05:29:44;;;;;;;13.95;2.80;;;;;;;10.87;100.00;100185.47;6186070;23;20012;-88
2024/02/05 05:32:16;;;;;;;8.13;2.92;;;;;;;10.88;100.00;100187.00;6212170;23;20087;-89
2024/02/05 05:34:41;;;;;;;10.15;2.20;;;;;;;10.95;100.00;100189.03;6208876;23;20008;-88
2024/02/05 05:37:13;;;;;;;14.88;2.50;;;;;;;11.04;100.00;100180.63;6201744;23;20074;-91
2024/02/05 05:39:38;;;;;;;5.90;2.35;;;;;;;10.96;100.00;100195.16;6206710;23;20429;-88
2024/02/05 05:42:04;;;;;;;7.32;2.47;;;;;;;10.72;100.00;100174.91;6208530;23;20091;-87
2024/02/05 05:44:32;;;;;;;9.25;2.70;;;;;;;10.54;100.00;100168.53;6178335;23;20001;-88
2024/02/05 05:46:58;;;;;;;9.40;2.15;;;;;;;10.59;100.00;100184.34;6210579;23;20016;-88
2024/02/05 05:49:26;;;;;;;11.25;2.83;;;;;;;10.55;100.00;100181.63;6215887;23;20039;-88
2024/02/05 05:51:52;;;;;;;8.25;2.42;;;;;;;10.57;100.00;100186.63;6183389;23;20047;-89
2024/02/05 05:54:19;;;;;;;8.68;2.95;;;;;;;10.78;100.00;100184.97;6185259;23;20321;-89
2024/02/05 05:56:45;;;;;;;8.63;2.65;;;;;;;10.75;100.00;100188.41;6186334;23;20837;-88
2024/02/05 05:59:11;;;;;;;7.32;2.58;;;;;;;10.46;100.00;100183.81;6184561;23;20004;-88
2024/02/05 06:01:40;;;;;;;4.45;1.83;;;;;;;10.58;100.00;100191.66;6186306;23;20008;-89
2024/02/05 10:54:49;;;;;;;;;;;;;;;;;;;;;
2024/02/05 10:58:29;;;;;;;6.53;2.00;;;;;;;10.66;100.00;100295.63;6204926;23;20051;-87
2024/02/05 11:04:57;;;;;;;7.50;1.67;;;;;;;10.86;100.00;100294.34;6222054;23;20017;-83
2024/02/05 11:08:21;;;;;;;8.20;2.42;;;;;;;10.68;100.00;100297.97;6224207;23;20087;-88
2024/02/05 11:15:13;;;;;;;;;;;;;;;;;;;;;
2024/02/05 11:17:45;;;;;;;6.03;3.03;;;;;;;10.71;100.00;100299.91;6198010;23;20044;-87
2024/02/05 11:20:45;;;;;;;6.72;1.92;;;;;;;10.84;100.00;100304.72;6197668;23;20466;-88
2024/02/05 11:24:05;;;;;;;7.95;2.33;;;;;;;10.75;100.00;100295.34;6191485;23;20023;-86
2024/02/05 11:27:35;;;;;;;6.57;2.60;;;;;;;10.52;100.00;100287.34;6189020;23;20550;-87
2024/02/05 11:30:29;;;;;;;11.52;2.10;;;;;;;10.67;100.00;100305.25;6201886;23;20012;-89
2024/02/05 11:37:00;;;;;;;3.35;1.65;;;;;;;10.78;100.00;100290.00;6194277;23;20082;-90
2024/02/05 11:40:51;;;;;;;2.80;1.67;;;;;;;10.87;100.00;100287.84;6192898;23;20100;-88
2024/02/05 11:44:01;;;;;;;4.28;2.08;;;;;;;10.64;100.00;100289.06;6194593;23;20012;-89
2024/02/05 11:46:54;;;;;;;4.18;1.65;;;;;;;10.69;100.00;100292.19;6206522;23;20069;-88
2024/02/05 11:50:00;;;;;;;4.40;1.73;;;;;;;10.76;100.00;100299.63;6189705;23;20028;-89
2024/02/05 11:56:51;;;;;;;3.40;1.58;;;;;;;10.93;100.00;100309.84;6141046;23;20063;-91
2024/02/05 11:59:28;;;;;;;7.82;2.17;;;;;;;10.70;100.00;100301.06;6139983;23;20072;-88
2024/02/05 12:02:12;;;;;;;5.68;1.52;;;;;;;10.61;100.00;100311.31;6123473;23;20571;-89
